Time;durP1;ratioP1;P1;durP2;ratioP2;P2;SDS_P1;SDS_P2;PMS_P1;PMS_P2;Temp;Humidity;BMP_temperature;BMP_pressure;BME280_temperature;BME280_humidity;BME280_pressure;Samples;Min_cycle;Max_cycle;Signal;HPM_P1;HPM_P2
2022/03/02 00:00:17;;;;;;;28.70;11.80;;;;;;;0.24;76.50;95120.66;5033796;28;20212;-76
2022/03/02 00:02:44;;;;;;;27.63;11.75;;;;;;;0.36;77.32;95113.31;5033624;28;20224;-77
2022/03/02 00:05:13;;;;;;;28.75;12.85;;;;;;;0.42;77.28;95104.31;5033293;28;20242;-76
2022/03/02 00:07:40;;;;;;;21.65;10.52;;;;;;;0.50;76.62;95109.19;5033542;28;20200;-75
2022/03/02 00:10:09;;;;;;;25.20;11.07;;;;;;;0.45;76.06;95106.47;5033219;28;20219;-77
2022/03/02 00:12:37;;;;;;;18.90;9.70;;;;;;;0.23;74.48;95095.06;5033472;28;20204;-77
2022/03/02 00:15:05;;;;;;;20.83;7.68;;;;;;;0.10;73.56;95098.13;5033331;28;20672;-76
2022/03/02 00:17:32;;;;;;;18.80;8.40;;;;;;;0.20;74.15;95095.56;5033167;28;20315;-76
2022/03/02 00:19:59;;;;;;;19.70;9.30;;;;;;;0.21;74.59;95100.66;5033142;28;20311;-76
2022/03/02 00:22:26;;;;;;;20.30;9.25;;;;;;;0.30;75.16;95087.69;5035835;28;20214;-76
2022/03/02 00:24:52;;;;;;;19.05;8.63;;;;;;;0.19;74.72;95085.97;5053058;28;20258;-77
2022/03/02 00:27:22;;;;;;;19.25;8.60;;;;;;;0.13;75.19;95087.78;5053013;28;20199;-77
2022/03/02 00:29:50;;;;;;;24.08;10.25;;;;;;;-0.15;75.41;95088.81;5052870;28;20262;-77
2022/03/02 00:32:17;;;;;;;19.52;8.52;;;;;;;-0.24;75.80;95084.97;5052750;28;20211;-77
2022/03/02 00:34:45;;;;;;;20.42;8.75;;;;;;;-0.29;75.33;95084.13;5052754;28;20215;-77
2022/03/02 00:37:12;;;;;;;21.98;9.77;;;;;;;-0.37;75.84;95082.69;5053149;28;20620;-76
2022/03/02 00:39:39;;;;;;;11.52;6.45;;;;;;;-0.54;74.16;95079.28;5052834;28;20237;-76
2022/03/02 00:42:07;;;;;;;15.88;7.28;;;;;;;-0.56;74.29;95084.06;5051754;28;20239;-76
2022/03/02 00:44:34;;;;;;;10.48;6.15;;;;;;;-0.40;74.42;95075.19;5052476;28;20301;-77
2022/03/02 00:47:04;;;;;;;10.23;6.43;;;;;;;-0.47;74.15;95064.75;5051973;28;20238;-76
2022/03/02 00:49:32;;;;;;;16.55;6.95;;;;;;;-0.40;74.85;95067.22;5052800;28;20214;-76
2022/03/02 00:51:59;;;;;;;16.77;8.05;;;;;;;-0.42;75.11;95059.50;5052559;28;20215;-76
2022/03/02 00:54:26;;;;;;;16.58;8.85;;;;;;;-0.45;75.73;95053.88;5053143;28;20230;-76
2022/03/02 00:56:53;;;;;;;21.55;9.32;;;;;;;-0.58;75.99;95056.91;5055870;28;20203;-76
2022/03/02 00:59:20;;;;;;;16.85;8.57;;;;;;;-0.75;77.06;95052.44;5053685;28;20540;-76
2022/03/02 01:01:47;;;;;;;23.20;8.98;;;;;;;-0.80;77.82;95043.56;5051849;28;20250;-76
2022/03/02 01:04:16;;;;;;;17.85;7.60;;;;;;;-0.88;78.33;95044.81;5052734;28;20207;-76
2022/03/02 01:06:43;;;;;;;23.27;10.07;;;;;;;-0.96;78.30;95042.59;5046242;28;20247;-76
2022/03/02 01:09:10;;;;;;;22.20;9.80;;;;;;;-1.10;79.10;95041.34;5045590;28;20200;-76
2022/03/02 01:11:37;;;;;;;18.52;9.75;;;;;;;-1.18;79.82;95044.38;5039008;28;20223;-76
2022/03/02 01:14:04;;;;;;;21.10;10.30;;;;;;;-1.12;79.44;95044.22;5052522;28;20212;-76
2022/03/02 01:16:32;;;;;;;19.98;10.35;;;;;;;-1.25;79.52;95038.44;5051827;28;20223;-76
2022/03/02 01:18:59;;;;;;;19.08;9.40;;;;;;;-1.38;80.00;95038.78;5051793;28;20706;-75
2022/03/02 01:21:27;;;;;;;21.85;8.10;;;;;;;-1.46;80.38;95035.47;5052117;28;20215;-75
2022/03/02 01:23:56;;;;;;;18.98;8.93;;;;;;;-1.33;80.38;95036.19;5052766;28;20919;-76
2022/03/02 01:26:24;;;;;;;19.70;9.32;;;;;;;-1.28;80.04;95028.31;5052222;28;20237;-76
2022/03/02 01:28:53;;;;;;;27.50;11.55;;;;;;;-1.41;80.07;95028.63;5052086;28;20209;-76
2022/03/02 01:31:21;;;;;;;26.92;11.40;;;;;;;-1.27;80.42;95024.59;5043095;28;20239;-76
2022/03/02 01:33:48;;;;;;;19.75;8.35;;;;;;;-1.28;79.80;95028.31;5031522;28;20841;-76
2022/03/02 01:36:15;;;;;;;18.73;8.60;;;;;;;-1.38;79.65;95030.81;5032024;28;20216;-76
2022/03/02 01:38:44;;;;;;;13.13;6.13;;;;;;;-1.37;79.14;95024.47;5031762;28;20671;-76
2022/03/02 01:41:14;;;;;;;22.92;9.52;;;;;;;-1.29;78.39;95018.72;5031565;28;20734;-76
2022/03/02 01:43:41;;;;;;;17.30;9.45;;;;;;;-1.39;78.58;95022.03;5045413;28;20204;-75
2022/03/02 01:46:07;;;;;;;15.43;7.55;;;;;;;-1.39;78.77;95016.72;5031922;28;20247;-75
2022/03/02 01:48:34;;;;;;;12.85;6.57;;;;;;;-1.41;79.10;95018.00;5031145;28;20591;-75
2022/03/02 01:51:02;;;;;;;12.90;7.43;;;;;;;-1.51;78.73;95014.16;5042583;28;20261;-74
2022/03/02 01:53:29;;;;;;;21.52;8.57;;;;;;;-1.47;79.02;95009.97;5051239;28;20618;-74
2022/03/02 01:55:59;;;;;;;17.20;7.88;;;;;;;-1.49;79.06;95012.03;5051245;28;20281;-76
2022/03/02 01:58:26;;;;;;;21.98;9.07;;;;;;;-1.56;78.14;95003.44;5051399;28;20211;-76
2022/03/02 02:00:53;;;;;;;22.85;8.23;;;;;;;-1.48;78.38;95002.22;5051085;28;20211;-75
2022/03/02 02:03:21;;;;;;;15.95;7.00;;;;;;;-1.36;77.43;95008.25;5051003;28;20579;-75
2022/03/02 02:05:49;;;;;;;13.85;5.70;;;;;;;-1.63;78.11;95000.16;5051417;28;20341;-76
2022/03/02 02:08:15;;;;;;;13.30;6.97;;;;;;;-1.71;78.40;95003.22;5044132;28;20607;-74
2022/03/02 02:10:42;;;;;;;16.13;7.75;;;;;;;-1.83;79.02;94990.03;5044026;28;20207;-74
2022/03/02 02:13:11;;;;;;;23.70;7.25;;;;;;;-1.86;79.62;94995.00;5050859;28;20204;-74
2022/03/02 02:15:38;;;;;;;16.00;7.70;;;;;;;-1.82;80.25;94990.84;5050460;28;20223;-76
2022/03/02 02:18:04;;;;;;;13.82;7.90;;;;;;;-1.83;79.07;94987.38;5030736;28;20232;-75
2022/03/02 02:20:37;;;;;;;17.50;7.60;;;;;;;-1.81;78.68;94992.44;5030514;28;20212;-75
2022/03/02 02:23:04;;;;;;;18.95;6.78;;;;;;;-1.83;79.71;94990.03;5047144;28;20199;-74
2022/03/02 02:25:31;;;;;;;14.82;7.03;;;;;;;-1.71;78.90;94991.78;5055740;28;20235;-75
2022/03/02 02:27:58;;;;;;;14.60;6.53;;;;;;;-1.83;79.13;94986.56;5050329;28;20681;-75
2022/03/02 02:30:26;;;;;;;13.85;8.10;;;;;;;-1.98;78.81;94991.63;5050778;28;20220;-75
2022/03/02 02:32:53;;;;;;;13.23;6.57;;;;;;;-2.17;80.33;94983.88;5051071;28;20208;-75
2022/03/02 02:35:21;;;;;;;11.90;6.45;;;;;;;-2.29;80.33;94991.09;5050774;28;20211;-75
2022/03/02 02:37:49;;;;;;;15.80;7.25;;;;;;;-2.36;80.85;94990.47;5050786;28;20218;-75
2022/03/02 02:40:19;;;;;;;19.48;6.90;;;;;;;-2.44;81.90;94982.06;5050455;28;20215;-76
2022/03/02 02:42:48;;;;;;;16.05;6.18;;;;;;;-2.35;81.56;94992.06;5050264;28;20242;-74
2022/03/02 02:45:17;;;;;;;13.48;6.07;;;;;;;-2.37;81.13;94988.03;5050819;28;20674;-74
2022/03/02 02:47:44;;;;;;;14.15;6.13;;;;;;;-2.38;80.93;94992.53;5050445;28;20250;-75
2022/03/02 02:50:19;;;;;;;12.23;5.60;;;;;;;-2.34;81.09;94983.06;5050018;28;20690;-75
2022/03/02 02:52:46;;;;;;;12.63;6.00;;;;;;;-2.28;80.39;94989.25;5050683;28;20206;-75
2022/03/02 02:55:16;;;;;;;11.50;5.72;;;;;;;-2.43;80.82;94984.47;5050498;28;20206;-75
2022/03/02 02:57:43;;;;;;;11.18;5.35;;;;;;;-2.47;80.57;94990.50;5049869;28;20208;-75
2022/03/02 03:00:13;;;;;;;9.77;5.57;;;;;;;-2.56;80.49;94990.06;5050471;28;20208;-75
2022/03/02 03:02:41;;;;;;;4.85;2.85;;;;;;;-2.44;79.23;94990.00;5050425;28;20658;-75
2022/03/02 03:05:10;;;;;;;10.07;4.70;;;;;;;-2.57;79.35;94983.16;5050582;28;20568;-75
2022/03/02 03:07:37;;;;;;;10.27;4.90;;;;;;;-2.61;79.34;94995.28;5050415;28;20243;-75
2022/03/02 03:10:05;;;;;;;4.97;4.10;;;;;;;-2.52;78.88;94988.56;5050370;28;20306;-75
2022/03/02 03:12:34;;;;;;;8.65;3.75;;;;;;;-2.50;78.13;94983.84;5050778;28;20219;-75
2022/03/02 03:15:01;;;;;;;6.60;3.42;;;;;;;-2.52;78.28;94991.22;5050579;28;20227;-75
2022/03/02 03:17:27;;;;;;;12.60;5.90;;;;;;;-2.52;78.64;94992.03;5050476;28;20318;-75
2022/03/02 03:19:54;;;;;;;9.85;4.75;;;;;;;-2.66;77.72;94985.38;5050119;28;20224;-75
2022/03/02 03:22:21;;;;;;;5.18;3.38;;;;;;;-2.69;77.83;94990.34;5050792;28;20667;-75
2022/03/02 03:24:48;;;;;;;7.80;4.38;;;;;;;-2.67;77.65;94993.56;5052937;28;20227;-75
2022/03/02 03:27:15;;;;;;;5.50;3.20;;;;;;;-2.71;77.40;94989.78;5053663;28;20710;-75
2022/03/02 03:29:44;;;;;;;7.72;3.38;;;;;;;-2.64;77.70;94988.63;5045416;28;20236;-75
2022/03/02 03:32:11;;;;;;;5.45;2.70;;;;;;;-2.58;77.17;94986.84;5033252;28;20208;-75
2022/03/02 03:34:37;;;;;;;4.57;2.15;;;;;;;-2.56;77.32;94982.91;5034160;28;20220;-75
2022/03/02 03:37:05;;;;;;;5.35;3.85;;;;;;;-2.43;77.27;94981.81;5033632;28;20239;-75
2022/03/02 03:39:32;;;;;;;3.75;2.55;;;;;;;-2.38;77.49;94976.63;5034601;28;20259;-76
2022/03/02 03:41:59;;;;;;;3.58;2.97;;;;;;;-2.22;77.05;94981.16;5037110;28;20632;-75
2022/03/02 03:44:25;;;;;;;7.82;2.88;;;;;;;-2.21;77.47;94966.84;5053672;28;20219;-75
2022/03/02 03:46:54;;;;;;;3.65;2.08;;;;;;;-2.16;77.89;94974.88;5053600;28;20234;-75
2022/03/02 03:49:21;;;;;;;10.57;2.97;;;;;;;-1.99;76.64;94974.09;5053782;28;20287;-76
2022/03/02 03:51:48;;;;;;;1.73;1.55;;;;;;;-1.92;77.10;94974.75;5036780;28;20678;-75
2022/03/02 03:54:15;;;;;;;4.18;1.85;;;;;;;-1.77;76.91;94977.63;5033683;28;20556;-76
2022/03/02 03:56:42;;;;;;;3.03;1.63;;;;;;;-1.75;77.28;94970.22;5033899;28;20204;-76
2022/03/02 03:59:09;;;;;;;2.65;1.77;;;;;;;-1.67;76.99;94967.19;5033567;28;20311;-76
2022/03/02 04:01:36;;;;;;;2.95;2.00;;;;;;;-1.64;77.33;94971.97;5033746;28;20842;-76
2022/03/02 04:04:04;;;;;;;6.00;3.17;;;;;;;-1.63;77.91;94962.97;5033614;28;20208;-76
2022/03/02 04:06:31;;;;;;;3.13;2.10;;;;;;;-1.54;77.63;94972.16;5033698;28;20229;-76
2022/03/02 04:08:58;;;;;;;4.72;2.28;;;;;;;-1.49;77.57;94969.53;5033388;28;20211;-76
2022/03/02 04:11:25;;;;;;;4.72;2.65;;;;;;;-1.49;77.20;94974.84;5033198;28;20223;-76
2022/03/02 04:13:53;;;;;;;4.53;2.83;;;;;;;-1.41;77.11;94976.31;5032605;28;20204;-77
2022/03/02 04:16:20;;;;;;;3.53;2.45;;;;;;;-1.38;77.22;94973.19;5051674;28;20269;-76
2022/03/02 04:18:47;;;;;;;3.75;2.45;;;;;;;-1.34;77.35;94971.63;5053077;28;20235;-77
2022/03/02 04:21:16;;;;;;;5.10;2.67;;;;;;;-1.36;77.53;94972.91;5052671;28;20301;-77
2022/03/02 04:23:42;;;;;;;5.30;3.15;;;;;;;-1.34;78.01;94968.16;5053231;28;20235;-76
2022/03/02 04:26:09;;;;;;;5.35;2.45;;;;;;;-1.29;78.07;94968.25;5033431;28;20627;-76
2022/03/02 04:28:36;;;;;;;3.15;2.13;;;;;;;-1.31;78.29;94970.31;5033295;28;20208;-76
2022/03/02 04:31:03;;;;;;;6.32;2.72;;;;;;;-1.31;77.69;94973.00;5032644;28;20212;-76
2022/03/02 04:33:31;;;;;;;6.40;3.60;;;;;;;-1.36;78.13;94965.75;5032940;28;20208;-76
2022/03/02 04:35:57;;;;;;;4.57;2.35;;;;;;;-1.29;77.83;94971.69;5038021;28;20211;-75
2022/03/02 04:38:26;;;;;;;4.03;2.35;;;;;;;-1.24;77.98;94965.66;5052015;28;20610;-75
2022/03/02 04:40:53;;;;;;;4.63;2.42;;;;;;;-1.19;78.28;94968.38;5052420;28;20269;-76
2022/03/02 04:43:20;;;;;;;6.28;3.58;;;;;;;-1.07;78.50;94961.06;5052482;28;20204;-75
2022/03/02 04:45:47;;;;;;;8.63;3.60;;;;;;;-1.15;78.54;94969.50;5053094;28;20215;-76
2022/03/02 04:48:14;;;;;;;5.72;2.97;;;;;;;-1.24;77.98;94960.34;5052122;28;20242;-75
2022/03/02 04:50:41;;;;;;;6.38;3.92;;;;;;;-1.18;77.49;94960.16;5051984;28;20214;-75
2022/03/02 04:53:08;;;;;;;8.35;3.70;;;;;;;-1.16;77.83;94963.38;5052374;28;20218;-75
2022/03/02 04:55:36;;;;;;;3.42;2.63;;;;;;;-0.98;78.09;94951.63;5052209;28;20208;-76
2022/03/02 04:58:03;;;;;;;7.45;3.72;;;;;;;-1.01;78.13;94954.78;5036693;28;20208;-75
2022/03/02 05:00:32;;;;;;;9.95;3.80;;;;;;;-0.83;78.33;94959.81;5032586;28;20227;-75
2022/03/02 05:03:01;;;;;;;6.93;3.45;;;;;;;-0.91;77.14;94960.22;5034538;28;20210;-77
2022/03/02 05:05:29;;;;;;;5.38;3.13;;;;;;;-0.85;77.62;94937.97;5052589;28;20199;-77
2022/03/02 05:07:56;;;;;;;5.43;3.40;;;;;;;-0.90;77.50;94945.88;5035468;28;20236;-76
2022/03/02 05:10:24;;;;;;;5.72;3.28;;;;;;;-1.02;77.56;94941.75;5032623;28;20227;-77
2022/03/02 05:12:53;;;;;;;7.00;3.50;;;;;;;-1.00;78.45;94943.09;5049184;28;20211;-77
2022/03/02 05:15:20;;;;;;;6.40;2.97;;;;;;;-0.94;78.46;94950.06;5051900;28;20227;-76
2022/03/02 05:17:49;;;;;;;3.20;2.13;;;;;;;-0.98;78.41;94948.97;5052303;28;20218;-77
2022/03/02 05:20:17;;;;;;;4.28;2.13;;;;;;;-0.95;78.94;94947.66;5051898;28;20596;-76
2022/03/02 05:22:45;;;;;;;6.68;3.28;;;;;;;-0.94;79.66;94939.44;5051974;28;20673;-76
2022/03/02 05:25:13;;;;;;;5.07;2.72;;;;;;;-0.95;79.39;94945.00;5051845;28;20297;-76
2022/03/02 05:27:41;;;;;;;7.60;3.88;;;;;;;-0.89;79.75;94942.16;5052000;28;20232;-76
2022/03/02 05:30:12;;;;;;;2.88;2.05;;;;;;;-0.89;79.85;94946.69;5051528;28;20462;-76
2022/03/02 05:32:39;;;;;;;3.90;2.75;;;;;;;-0.78;80.41;94954.53;5031536;28;20798;-76
2022/03/02 05:35:07;;;;;;;5.35;3.13;;;;;;;-0.82;80.48;94953.41;5032195;28;20204;-76
2022/03/02 05:37:34;;;;;;;8.60;3.55;;;;;;;-0.76;80.21;94952.44;5039132;28;20211;-76
2022/03/02 05:40:02;;;;;;;4.20;2.70;;;;;;;-0.81;79.93;94959.53;5051582;28;20242;-76
2022/03/02 05:42:28;;;;;;;6.20;2.22;;;;;;;-0.64;79.73;94954.13;5051559;28;20240;-77
2022/03/02 05:44:55;;;;;;;5.22;3.55;;;;;;;-0.73;80.16;94946.63;5052079;28;20199;-76
2022/03/02 05:47:24;;;;;;;8.15;3.75;;;;;;;-0.72;79.64;94950.06;5050765;28;20223;-78
2022/03/02 05:49:51;;;;;;;6.70;3.95;;;;;;;-0.80;80.08;94959.28;5051118;28;20666;-77
2022/03/02 05:52:19;;;;;;;5.30;2.60;;;;;;;-0.73;79.99;94948.47;5051703;28;20235;-78
2022/03/02 05:54:45;;;;;;;6.22;2.95;;;;;;;-0.61;79.85;94953.66;5051634;28;20203;-77
2022/03/02 05:57:12;;;;;;;6.40;3.25;;;;;;;-0.51;79.64;94945.75;5051205;28;20203;-77
2022/03/02 05:59:39;;;;;;;5.88;3.47;;;;;;;-0.65;79.20;94942.69;5051253;28;20215;-77
2022/03/02 06:02:06;;;;;;;4.13;2.80;;;;;;;-0.48;79.68;94953.25;5051235;28;20231;-76
2022/03/02 06:04:34;;;;;;;7.03;3.88;;;;;;;-0.31;79.04;94953.97;5050684;28;20235;-78
2022/03/02 06:07:01;;;;;;;9.07;4.43;;;;;;;-0.14;78.66;94952.00;5051167;28;20242;-76
2022/03/02 06:09:28;;;;;;;5.30;3.42;;;;;;;-0.16;78.33;94951.44;5051001;28;20728;-77
2022/03/02 06:11:59;;;;;;;7.28;3.50;;;;;;;-0.25;78.21;94963.59;5051187;28;20199;-77
2022/03/02 06:14:26;;;;;;;9.68;3.63;;;;;;;0.02;78.02;94957.44;5034035;28;20259;-78
2022/03/02 06:16:54;;;;;;;7.20;4.50;;;;;;;-0.20;77.76;94950.34;5031125;28;20224;-76
2022/03/02 06:19:21;;;;;;;6.80;3.58;;;;;;;0.10;77.97;94957.00;5031071;28;20311;-76
2022/03/02 06:21:51;;;;;;;8.93;4.80;;;;;;;-0.17;77.38;94955.16;5031246;28;20562;-78
2022/03/02 06:24:18;;;;;;;7.25;4.63;;;;;;;-0.19;77.97;94951.94;5045104;28;20221;-77
2022/03/02 06:26:45;;;;;;;6.35;3.35;;;;;;;-0.37;77.95;94954.97;5042169;28;20195;-77
2022/03/02 06:29:12;;;;;;;6.90;3.60;;;;;;;-0.10;77.90;94950.44;5050253;28;20231;-77
2022/03/02 06:31:40;;;;;;;4.00;2.63;;;;;;;-0.21;78.00;94951.41;5050999;28;20299;-76
2022/03/02 06:34:07;;;;;;;9.27;5.00;;;;;;;-0.16;78.23;94953.31;5045926;28;20587;-78
2022/03/02 06:36:33;;;;;;;8.35;4.38;;;;;;;-0.17;78.22;94949.84;5030744;28;20223;-78
2022/03/02 06:39:02;;;;;;;9.05;3.70;;;;;;;0.05;77.82;94949.75;5030727;28;20208;-77
2022/03/02 06:41:31;;;;;;;5.68;3.50;;;;;;;0.05;77.66;94941.75;5030370;28;20232;-79
2022/03/02 06:44:05;;;;;;;3.92;2.75;;;;;;;0.11;77.30;94939.97;5050949;28;20204;-76
2022/03/02 06:46:38;;;;;;;8.77;4.28;;;;;;;0.09;77.72;94939.41;5050562;28;20200;-77
2022/03/02 06:49:15;;;;;;;6.50;3.25;;;;;;;0.14;76.78;94942.09;5049898;28;20219;-77
2022/03/02 06:51:45;;;;;;;7.72;5.00;;;;;;;0.22;76.06;94936.31;5050483;28;20558;-78
2022/03/02 06:54:15;;;;;;;8.65;4.47;;;;;;;0.28;76.18;94929.94;5050895;28;20204;-78
2022/03/02 06:56:49;;;;;;;6.70;4.28;;;;;;;0.29;76.08;94942.22;5033072;28;20208;-79
2022/03/02 06:59:27;;;;;;;8.30;4.72;;;;;;;0.16;76.83;94935.47;5033569;28;20196;-77
2022/03/02 07:01:58;;;;;;;5.18;3.25;;;;;;;0.23;76.13;94933.41;5041097;28;20228;-78
2022/03/02 07:04:27;;;;;;;8.68;4.90;;;;;;;0.17;75.98;94929.06;5054056;28;20195;-79
2022/03/02 07:06:55;;;;;;;4.80;2.92;;;;;;;0.21;76.37;94929.38;5045373;28;20200;-78
2022/03/02 07:09:24;;;;;;;10.00;3.78;;;;;;;0.24;75.95;94934.19;5034549;28;20248;-77
2022/03/02 07:11:51;;;;;;;7.93;4.47;;;;;;;0.32;75.21;94925.72;5042963;28;20200;-79
2022/03/02 07:14:18;;;;;;;9.32;4.38;;;;;;;0.53;75.37;94916.00;5052627;28;20207;-79
2022/03/02 07:16:45;;;;;;;8.77;5.07;;;;;;;0.29;76.09;94915.56;5033855;28;20236;-78
2022/03/02 07:19:12;;;;;;;7.38;4.03;;;;;;;0.33;75.57;94922.00;5033450;28;20228;-79
2022/03/02 07:21:45;;;;;;;8.85;5.22;;;;;;;0.11;75.41;94911.47;5034159;28;20236;-79
2022/03/02 07:24:17;;;;;;;5.85;3.15;;;;;;;0.18;76.12;94916.56;5052198;28;20215;-79
2022/03/02 07:26:47;;;;;;;6.55;3.88;;;;;;;0.43;75.68;94908.72;5053846;28;20232;-79
2022/03/02 07:29:15;;;;;;;7.50;3.55;;;;;;;0.55;75.57;94909.34;5053074;28;20242;-79
2022/03/02 07:31:43;;;;;;;8.52;5.07;;;;;;;0.51;75.19;94908.28;5053919;28;20290;-79
2022/03/02 07:34:13;;;;;;;7.60;4.22;;;;;;;0.61;74.55;94910.19;5053714;28;20667;-79
2022/03/02 07:36:41;;;;;;;6.35;4.95;;;;;;;0.57;75.32;94907.22;5053698;28;20214;-79
2022/03/02 07:39:08;;;;;;;8.68;5.35;;;;;;;0.46;75.04;94908.22;5048240;28;20373;-79
2022/03/02 07:41:35;;;;;;;7.90;4.15;;;;;;;0.54;75.29;94899.78;5033738;28;20247;-79
2022/03/02 07:44:05;;;;;;;5.70;4.80;;;;;;;0.59;74.88;94905.09;5040622;28;20204;-80
2022/03/02 07:46:33;;;;;;;10.43;5.28;;;;;;;0.71;75.59;94897.69;5053643;28;20219;-80
2022/03/02 07:49:00;;;;;;;9.18;4.88;;;;;;;1.08;73.99;94894.16;5053909;28;20234;-80
2022/03/02 07:51:28;;;;;;;9.07;5.05;;;;;;;1.08;73.90;94894.16;5053474;28;20204;-77
2022/03/02 07:54:00;;;;;;;6.03;4.28;;;;;;;0.74;74.50;94900.91;5054727;28;20211;-81
2022/03/02 07:56:29;;;;;;;18.42;6.63;;;;;;;0.80;75.04;94905.22;5038661;28;20208;-81
2022/03/02 07:59:01;;;;;;;14.20;6.78;;;;;;;0.90;74.44;94898.06;5033831;28;20247;-81
2022/03/02 08:01:33;;;;;;;8.60;4.93;;;;;;;0.76;73.96;94896.13;5036399;28;20232;-80
2022/03/02 08:04:03;;;;;;;10.15;5.43;;;;;;;1.05;74.33;94902.66;5053503;28;20219;-80
2022/03/02 08:06:31;;;;;;;14.15;6.07;;;;;;;1.13;73.56;94896.81;5053439;28;20663;-80
2022/03/02 08:08:59;;;;;;;8.02;5.53;;;;;;;0.87;74.27;94892.44;5052515;28;20235;-81
2022/03/02 08:11:26;;;;;;;10.50;5.65;;;;;;;0.62;74.52;94888.59;5053152;28;20207;-82
2022/03/02 08:13:53;;;;;;;8.25;4.75;;;;;;;0.80;74.40;94889.22;5053529;28;20231;-79
2022/03/02 08:16:20;;;;;;;8.95;4.82;;;;;;;0.62;74.83;94893.94;5052932;28;20273;-79
2022/03/02 08:18:48;;;;;;;8.85;5.05;;;;;;;0.93;74.83;94894.88;5052953;28;20310;-78
2022/03/02 08:21:19;;;;;;;15.73;6.78;;;;;;;1.12;74.29;94876.53;5053127;28;20623;-78
2022/03/02 08:23:50;;;;;;;16.42;5.57;;;;;;;1.19;73.04;94893.13;5054199;28;20313;-78
2022/03/02 08:26:20;;;;;;;11.88;6.03;;;;;;;1.36;73.79;94888.38;5053327;28;20586;-79
2022/03/02 08:28:47;;;;;;;9.23;5.15;;;;;;;1.45;72.47;94885.16;5053087;28;20326;-79
2022/03/02 08:31:14;;;;;;;11.50;5.70;;;;;;;1.13;74.30;94880.81;5045228;28;20473;-79
2022/03/02 08:33:42;;;;;;;12.60;5.63;;;;;;;1.30;72.94;94880.59;5047389;28;20227;-80
2022/03/02 08:36:12;;;;;;;9.75;4.68;;;;;;;1.52;71.99;94878.50;5052784;28;20574;-81
2022/03/02 08:38:42;;;;;;;10.88;5.40;;;;;;;1.26;72.67;94882.19;5053102;28;20208;-80
2022/03/02 08:41:11;;;;;;;15.93;6.95;;;;;;;0.88;73.80;94872.72;5052298;28;20235;-80
2022/03/02 08:43:38;;;;;;;11.15;5.43;;;;;;;0.92;73.59;94866.63;5052887;28;20215;-78
2022/03/02 08:46:07;;;;;;;10.27;5.22;;;;;;;1.16;73.51;94866.16;5053024;28;20207;-79
2022/03/02 08:48:34;;;;;;;13.48;6.15;;;;;;;1.22;73.13;94855.25;5052928;28;20322;-78
2022/03/02 08:51:01;;;;;;;15.98;6.43;;;;;;;1.68;72.62;94856.09;5052520;28;20406;-81
2022/03/02 08:53:32;;;;;;;16.40;6.10;;;;;;;2.11;70.66;94857.44;5052531;28;20231;-80
2022/03/02 08:56:00;;;;;;;13.07;6.40;;;;;;;2.16;70.33;94847.81;5052716;28;20203;-79
2022/03/02 08:58:28;;;;;;;15.35;7.63;;;;;;;1.99;70.36;94851.56;5052261;28;20242;-76
2022/03/02 09:00:55;;;;;;;15.48;7.10;;;;;;;2.01;70.58;94846.75;5052165;28;20251;-76
2022/03/02 09:03:23;;;;;;;17.83;6.38;;;;;;;1.93;71.15;94852.63;5032866;28;20205;-79
2022/03/02 09:05:51;;;;;;;10.60;5.50;;;;;;;1.99;69.73;94846.22;5032596;28;20258;-79
2022/03/02 09:08:18;;;;;;;11.10;6.75;;;;;;;2.28;69.07;94840.31;5031901;28;20267;-79
2022/03/02 09:10:47;;;;;;;11.73;6.13;;;;;;;2.37;68.93;94842.16;5031896;28;20686;-78
2022/03/02 09:13:14;;;;;;;12.52;7.25;;;;;;;2.00;69.76;94833.66;5032529;28;20204;-79
2022/03/02 09:15:42;;;;;;;13.30;6.15;;;;;;;2.61;68.48;94833.53;5032198;28;20634;-79
2022/03/02 09:18:09;;;;;;;13.98;7.53;;;;;;;2.19;69.97;94837.38;5032297;28;20236;-79
2022/03/02 09:20:38;;;;;;;14.77;8.52;;;;;;;1.88;69.94;94835.81;5032144;28;20723;-77
2022/03/02 09:23:05;;;;;;;13.35;7.55;;;;;;;1.67;70.60;94835.00;5048252;28;20229;-79
2022/03/02 09:25:33;;;;;;;11.38;5.20;;;;;;;2.44;69.32;94828.50;5056033;28;20199;-78
2022/03/02 09:28:02;;;;;;;13.23;6.07;;;;;;;2.05;69.81;94826.44;5040847;28;20219;-78
2022/03/02 09:30:29;;;;;;;14.32;8.35;;;;;;;2.52;68.36;94811.91;5049798;28;20199;-78
2022/03/02 09:32:59;;;;;;;18.77;6.13;;;;;;;2.39;69.25;94823.19;5030929;28;20733;-78
2022/03/02 09:35:28;;;;;;;12.52;6.78;;;;;;;2.59;68.71;94820.44;5031657;28;20253;-78
2022/03/02 09:37:56;;;;;;;13.98;6.72;;;;;;;2.98;67.91;94811.72;5032350;28;20204;-79
2022/03/02 09:40:26;;;;;;;13.73;7.40;;;;;;;2.80;67.81;94800.56;5031397;28;20611;-80
2022/03/02 09:42:57;;;;;;;10.93;5.60;;;;;;;3.10;66.93;94793.47;5041286;28;20648;-81
2022/03/02 09:45:27;;;;;;;11.55;6.72;;;;;;;3.04;66.49;94799.91;5051087;28;20204;-78
2022/03/02 09:47:57;;;;;;;16.60;9.13;;;;;;;2.40;68.02;94806.06;5051682;28;20207;-80
2022/03/02 09:50:26;;;;;;;13.10;6.63;;;;;;;3.10;66.94;94798.81;5051807;28;20211;-81
2022/03/02 09:52:55;;;;;;;11.50;6.13;;;;;;;3.42;64.98;94795.66;5051346;28;20678;-82
2022/03/02 09:55:24;;;;;;;7.28;3.83;;;;;;;3.90;62.80;94796.63;5051474;28;20204;-79
2022/03/02 09:57:54;;;;;;;10.77;6.45;;;;;;;3.24;66.19;94790.97;5051149;28;20257;-80
2022/03/02 10:00:23;;;;;;;11.57;7.05;;;;;;;2.70;66.58;94795.28;5050699;28;20207;-79
2022/03/02 10:02:55;;;;;;;17.25;8.52;;;;;;;3.14;66.40;94797.19;5051379;28;20207;-81
2022/03/02 10:05:23;;;;;;;12.55;7.28;;;;;;;3.02;67.17;94784.13;5051609;28;20235;-80
2022/03/02 10:08:08;;;;;;;16.95;8.82;;;;;;;2.62;67.08;94785.13;5051098;28;20212;-78
2022/03/02 10:10:37;;;;;;;12.10;5.93;;;;;;;2.85;66.87;94787.19;5051291;28;20363;-79
2022/03/02 10:13:09;;;;;;;11.13;5.43;;;;;;;2.94;66.58;94767.88;5045425;28;20205;-77
2022/03/02 10:15:38;;;;;;;10.80;6.05;;;;;;;2.35;67.57;94771.31;5031172;28;20228;-79
2022/03/02 10:18:11;;;;;;;11.38;5.95;;;;;;;2.69;67.51;94766.94;5037387;28;20227;-80
2022/03/02 10:20:40;;;;;;;14.68;6.97;;;;;;;3.02;65.79;94759.25;5051057;28;20519;-78
2022/03/02 10:23:25;;;;;;;9.93;4.78;;;;;;;3.37;66.30;94767.06;5051783;28;20230;-79
2022/03/02 10:26:01;;;;;;;15.80;6.75;;;;;;;3.65;64.00;94762.03;5051333;28;20218;-80
2022/03/02 10:28:30;;;;;;;10.40;6.40;;;;;;;3.86;63.44;94755.41;5050752;28;20521;-79
2022/03/02 10:31:46;;;;;;;11.88;5.88;;;;;;;3.45;64.76;94758.41;5050548;28;20215;-79
2022/03/02 10:34:29;;;;;;;11.60;6.70;;;;;;;4.18;63.28;94755.63;5032246;28;20252;-79
2022/03/02 10:37:05;;;;;;;11.60;6.82;;;;;;;3.91;62.75;94744.66;5050177;28;20759;-80
2022/03/02 10:39:48;;;;;;;12.02;6.82;;;;;;;4.01;62.41;94739.19;5050840;28;20615;-79
2022/03/02 10:42:21;;;;;;;12.70;6.32;;;;;;;4.17;62.04;94737.94;5050517;28;20234;-81
2022/03/02 10:44:59;;;;;;;12.15;6.40;;;;;;;3.81;63.01;94739.41;5050812;28;20207;-77
2022/03/02 10:47:29;;;;;;;17.73;7.72;;;;;;;3.64;63.02;94733.66;5051011;28;20231;-79
2022/03/02 10:49:59;;;;;;;15.98;7.15;;;;;;;3.87;63.01;94727.53;5050015;28;20238;-81
2022/03/02 10:52:28;;;;;;;11.75;6.03;;;;;;;3.84;63.76;94722.72;5050896;28;20424;-79
2022/03/02 10:54:56;;;;;;;8.90;5.00;;;;;;;3.20;62.32;94723.81;5050522;28;20604;-79
2022/03/02 10:57:26;;;;;;;10.00;5.13;;;;;;;2.82;63.98;94712.03;5050342;28;20207;-78
2022/03/02 10:59:54;;;;;;;14.38;7.35;;;;;;;2.96;64.51;94693.47;5050426;28;20210;-81
2022/03/02 11:02:23;;;;;;;10.18;6.25;;;;;;;3.49;63.13;94703.25;5050794;28;20235;-79
2022/03/02 11:04:54;;;;;;;9.52;3.90;;;;;;;3.21;63.75;94699.44;5050635;28;20199;-80
2022/03/02 11:07:25;;;;;;;13.88;7.07;;;;;;;3.54;62.60;94697.84;5038201;28;20205;-78
2022/03/02 11:09:52;;;;;;;13.80;5.88;;;;;;;3.61;62.90;94696.72;5030336;28;20228;-79
2022/03/02 11:12:21;;;;;;;10.18;5.93;;;;;;;3.83;61.29;94694.34;5030646;28;20208;-81
2022/03/02 11:14:55;;;;;;;14.00;6.13;;;;;;;3.74;61.94;94696.03;5029784;28;20715;-79
2022/03/02 11:17:22;;;;;;;11.25;6.15;;;;;;;2.94;63.47;94682.25;5030421;28;20314;-77
2022/03/02 11:19:49;;;;;;;13.02;7.28;;;;;;;3.42;63.24;94684.00;5030294;28;20223;-79
2022/03/02 11:22:20;;;;;;;15.98;7.72;;;;;;;4.05;61.31;94673.22;5031710;28;20243;-79
2022/03/02 11:24:53;;;;;;;14.68;7.65;;;;;;;4.58;60.29;94673.09;5050561;28;20258;-79
2022/03/02 11:27:36;;;;;;;9.45;5.35;;;;;;;3.53;61.37;94669.47;5050180;28;20736;-80
2022/03/02 11:30:09;;;;;;;12.52;5.70;;;;;;;3.53;61.03;94658.75;5050357;28;20262;-79
2022/03/02 11:32:40;;;;;;;8.98;4.85;;;;;;;3.62;61.70;94656.25;5050244;28;20293;-81
2022/03/02 11:35:09;;;;;;;18.13;8.10;;;;;;;3.61;61.79;94648.50;5050686;28;20207;-78
2022/03/02 11:37:35;;;;;;;11.70;6.57;;;;;;;3.04;60.92;94644.72;5050418;28;20218;-78